Time;durP1;ratioP1;P1;durP2;ratioP2;P2;SDS_P1;SDS_P2;PMS_P1;PMS_P2;Temp;Humidity;BMP_temperature;BMP_pressure;BME280_temperature;BME280_humidity;BME280_pressure;Samples;Min_cycle;Max_cycle;Signal;HPM_P1;HPM_P2
2022/12/24 00:02:09;;;;;;;;;;;;;;;9.60;95.52;100595.81;5086803;28;19912;-58
2022/12/24 00:04:34;;;;;;;;;;;;;;;9.61;95.94;100598.31;5089765;28;19961;-57
2022/12/24 00:07:01;;;;;;;;;;;;;;;9.53;96.23;100595.66;5079516;28;21260;-58
2022/12/24 00:09:26;;;;;;;;;;;;;;;9.59;96.32;100596.81;5088624;28;19922;-59
2022/12/24 00:11:52;;;;;;;;;;;;;;;9.63;96.84;100603.44;5088312;28;20350;-58
2022/12/24 00:14:17;;;;;;;;;;;;;;;9.59;96.61;100610.91;5089378;28;20002;-59
2022/12/24 00:16:42;;;;;;;;;;;;;;;9.59;96.84;100608.25;5087841;28;19927;-59
2022/12/24 00:19:07;;;;;;;;;;;;;;;9.53;96.93;100600.94;5087512;28;19935;-61
2022/12/24 00:21:32;;;;;;;;;;;;;;;9.53;96.98;100603.59;5084311;28;19912;-60
2022/12/24 00:23:57;;;;;;;;;;;;;;;9.52;97.51;100619.69;5088102;28;19920;-58
2022/12/24 00:26:23;;;;;;;;;;;;;;;9.49;97.56;100626.16;5081642;28;20292;-59
2022/12/24 00:28:48;;;;;;;;;;;;;;;9.48;97.43;100626.31;5087393;28;20272;-58
2022/12/24 00:31:15;;;;;;;;;;;;;;;9.53;97.64;100621.34;5079992;28;19912;-57
2022/12/24 00:33:40;;;;;;;;;;;;;;;9.54;97.55;100634.44;5082958;28;19912;-59
2022/12/24 00:36:05;;;;;;;;;;;;;;;9.50;97.49;100634.94;5090169;28;19961;-59
2022/12/24 00:38:30;;;;;;;;;;;;;;;9.58;97.66;100635.75;5096906;28;19960;-63
2022/12/24 00:41:00;;;;;;;;;;;;;;;9.59;97.35;100634.75;5083606;28;19923;-60
2022/12/24 00:43:25;;;;;;;;;;;;;;;9.64;97.50;100642.19;5082897;28;19920;-58
2022/12/24 00:45:50;;;;;;;;;;;;;;;9.59;97.14;100655.97;5087267;28;19991;-57
2022/12/24 00:48:15;;;;;;;;;;;;;;;9.59;97.26;100644.53;5078231;28;19916;-57
2022/12/24 00:50:40;;;;;;;;;;;;;;;9.59;96.56;100653.31;5081250;28;19912;-58
2022/12/24 00:53:05;;;;;;;;;;;;;;;9.60;96.47;100665.56;5088642;28;19973;-58
2022/12/24 00:55:31;;;;;;;;;;;;;;;9.46;96.63;100653.00;5083575;28;19999;-59
2022/12/24 00:57:56;;;;;;;;;;;;;;;9.53;96.62;100663.75;5086034;28;19920;-58
2022/12/24 01:00:21;;;;;;;;;;;;;;;9.51;96.36;100686.94;5082907;28;19977;-59
2022/12/24 01:02:46;;;;;;;;;;;;;;;9.48;96.32;100669.56;5083167;28;19916;-58
2022/12/24 01:05:11;;;;;;;;;;;;;;;9.54;96.32;100689.25;5086383;28;20392;-60
2022/12/24 01:07:38;;;;;;;;;;;;;;;9.48;96.35;100672.22;5082097;28;19966;-59
2022/12/24 01:10:03;;;;;;;;;;;;;;;9.52;96.35;100684.13;5083043;28;21054;-59
2022/12/24 01:12:29;;;;;;;;;;;;;;;9.48;96.08;100677.50;5079364;28;20015;-60
2022/12/24 01:14:54;;;;;;;;;;;;;;;9.50;96.22;100675.50;5083128;28;20288;-59
2022/12/24 01:17:19;;;;;;;;;;;;;;;9.46;95.76;100678.66;5086274;28;20014;-59
2022/12/24 01:19:44;;;;;;;;;;;;;;;9.41;96.08;100695.09;5085995;28;19912;-59
2022/12/24 01:22:10;;;;;;;;;;;;;;;9.39;95.86;100686.47;5087571;28;19962;-59
2022/12/24 01:24:35;;;;;;;;;;;;;;;9.33;95.87;100697.75;5087477;28;20355;-59
2022/12/24 01:27:00;;;;;;;;;;;;;;;9.29;96.21;100707.84;5088133;28;20359;-58
2022/12/24 01:29:25;;;;;;;;;;;;;;;9.30;96.15;100700.72;5090240;28;20006;-57
2022/12/24 01:31:51;;;;;;;;;;;;;;;9.22;96.36;100703.34;5081810;28;19966;-59
2022/12/24 01:34:16;;;;;;;;;;;;;;;9.16;96.56;100699.53;5091083;28;19916;-60
2022/12/24 01:36:41;;;;;;;;;;;;;;;9.18;96.60;100694.09;5090560;28;20398;-57
2022/12/24 01:39:06;;;;;;;;;;;;;;;9.13;96.74;100709.66;5081857;28;19923;-63
2022/12/24 01:44:30;;;;;;;;;;;;;;;9.03;97.22;100715.09;5088531;28;19923;-58
2022/12/24 01:47:10;;;;;;;;;;;;;;;9.00;96.95;100712.78;5088922;28;19916;-58
2022/12/24 01:49:36;;;;;;;;;;;;;;;8.96;97.27;100716.72;5091715;28;20010;-59
2022/12/24 01:52:22;;;;;;;;;;;;;;;8.92;97.45;100713.59;5090206;28;19919;-59
2022/12/24 01:54:49;;;;;;;;;;;;;;;8.84;97.53;100716.22;5088244;28;19912;-59
2022/12/24 01:57:17;;;;;;;;;;;;;;;8.84;98.19;100718.88;5085844;28;19912;-60
2022/12/24 01:59:43;;;;;;;;;;;;;;;8.80;98.40;100724.66;5090493;28;19923;-60
2022/12/24 02:02:09;;;;;;;;;;;;;;;8.75;98.47;100741.03;5083290;28;19913;-61
2022/12/24 02:04:43;;;;;;;;;;;;;;;8.73;98.71;100743.00;5091638;28;19920;-58
2022/12/24 02:07:09;;;;;;;;;;;;;;;8.79;99.36;100737.06;5080279;28;20436;-57
2022/12/24 02:09:34;;;;;;;;;;;;;;;8.82;99.19;100741.22;5085754;28;20481;-57
2022/12/24 02:12:00;;;;;;;;;;;;;;;8.84;99.49;100749.81;5095499;28;20008;-59
2022/12/24 02:14:27;;;;;;;;;;;;;;;8.89;100.00;100751.00;5086969;28;20044;-60
2022/12/24 02:16:54;;;;;;;;;;;;;;;8.95;99.95;100750.34;5093869;28;19916;-59
2022/12/24 02:19:31;;;;;;;;;;;;;;;8.96;100.00;100751.16;5082284;28;19923;-57
2022/12/24 02:22:01;;;;;;;;;;;;;;;8.97;100.00;100756.31;5089858;28;19952;-58
2022/12/24 02:24:45;;;;;;;;;;;;;;;8.98;100.00;100755.34;5086350;28;19924;-57
2022/12/24 02:27:24;;;;;;;;;;;;;;;9.02;100.00;100749.72;5083584;28;19912;-59
2022/12/24 02:29:50;;;;;;;;;;;;;;;9.07;100.00;100753.53;5090353;28;20022;-60
2022/12/24 02:32:21;;;;;;;;;;;;;;;9.09;100.00;100758.66;5089041;28;20355;-59
2022/12/24 02:34:50;;;;;;;;;;;;;;;9.13;100.00;100754.69;5085332;28;19916;-56
2022/12/24 02:37:33;;;;;;;;;;;;;;;9.14;100.00;100769.59;5092648;28;20396;-58
2022/12/24 02:39:58;;;;;;;;;;;;;;;9.19;100.00;100767.28;5093148;28;20377;-59
2022/12/24 02:42:26;;;;;;;;;;;;;;;9.19;100.00;100768.09;5083212;28;20323;-60
2022/12/24 02:44:57;;;;;;;;;;;;;;;9.19;100.00;100762.81;5088583;28;20378;-60
2022/12/24 02:47:24;;;;;;;;;;;;;;;9.23;100.00;100761.47;5088938;28;20371;-59
2022/12/24 02:49:49;;;;;;;;;;;;;;;9.24;100.00;100765.78;5086411;28;19912;-60
2022/12/24 02:52:31;;;;;;;;;;;;;;;9.27;100.00;100769.97;5089538;28;19912;-59
2022/12/24 02:54:59;;;;;;;;;;;;;;;9.25;100.00;100775.41;5082486;28;19982;-59
2022/12/24 02:57:30;;;;;;;;;;;;;;;9.22;100.00;100766.94;5080023;28;19920;-60
2022/12/24 02:59:59;;;;;;;;;;;;;;;9.20;100.00;100790.13;5083087;28;19916;-59
2022/12/24 03:02:33;;;;;;;;;;;;;;;9.21;100.00;100771.41;5086740;28;19925;-62
2022/12/24 03:05:04;;;;;;;;;;;;;;;9.18;100.00;100786.81;5088281;28;19912;-60
2022/12/24 03:07:35;;;;;;;;;;;;;;;9.16;100.00;100780.84;5084801;28;19961;-59
2022/12/24 03:10:16;;;;;;;;;;;;;;;9.15;100.00;100782.66;5081084;28;19913;-59
2022/12/24 03:12:43;;;;;;;;;;;;;;;9.19;100.00;100780.53;5085746;28;20353;-59
2022/12/24 03:15:10;;;;;;;;;;;;;;;9.20;100.00;100774.22;5078574;28;19920;-60
2022/12/24 03:17:37;;;;;;;;;;;;;;;9.23;100.00;100781.84;5085261;28;19923;-59
2022/12/24 03:20:03;;;;;;;;;;;;;;;9.23;100.00;100781.84;5083400;28;19920;-58
2022/12/24 03:22:30;;;;;;;;;;;;;;;9.23;100.00;100781.84;5088830;28;19912;-59
2022/12/24 03:24:55;;;;;;;;;;;;;;;9.23;100.00;100777.38;5090165;28;19932;-60
2022/12/24 03:27:21;;;;;;;;;;;;;;;9.25;100.00;100788.66;5087039;28;19920;-60
2022/12/24 03:29:46;;;;;;;;;;;;;;;9.29;100.00;100791.81;5088667;28;19916;-60
2022/12/24 03:32:11;;;;;;;;;;;;;;;9.32;100.00;100783.53;5085567;28;19916;-59
2022/12/24 03:34:37;;;;;;;;;;;;;;;9.32;100.00;100784.38;5087903;28;19915;-59
2022/12/24 03:37:02;;;;;;;;;;;;;;;9.32;100.00;100789.66;5083342;28;19921;-60
2022/12/24 03:39:27;;;;;;;;;;;;;;;9.30;100.00;100806.72;5084966;28;20626;-60
2022/12/24 03:41:52;;;;;;;;;;;;;;;9.29;100.00;100797.94;5089580;28;19912;-57
2022/12/24 03:44:18;;;;;;;;;;;;;;;9.30;100.00;100793.47;5081817;28;20303;-59
2022/12/24 03:46:43;;;;;;;;;;;;;;;9.35;100.00;100793.81;5077817;28;19911;-57
2022/12/24 03:49:08;;;;;;;;;;;;;;;9.36;100.00;100792.81;5084576;28;19973;-60
2022/12/24 03:51:33;;;;;;;;;;;;;;;9.39;100.00;100796.97;5089814;28;20299;-59
2022/12/24 03:53:59;;;;;;;;;;;;;;;9.45;100.00;100807.72;5085009;28;19916;-60
2022/12/24 03:56:24;;;;;;;;;;;;;;;9.46;100.00;100801.44;5089486;28;19966;-59
2022/12/24 03:58:49;;;;;;;;;;;;;;;9.48;100.00;100801.25;5094224;28;19916;-59
2022/12/24 04:01:15;;;;;;;;;;;;;;;9.54;100.00;100803.25;5088302;28;19926;-58
2022/12/24 04:03:40;;;;;;;;;;;;;;;9.59;100.00;100801.78;5088971;28;20395;-61
2022/12/24 04:06:07;;;;;;;;;;;;;;;9.63;100.00;100807.59;5088655;28;19912;-59
2022/12/24 04:08:32;;;;;;;;;;;;;;;9.70;100.00;100805.94;5083831;28;19911;-60
2022/12/24 04:10:57;;;;;;;;;;;;;;;9.73;100.00;100802.09;5084387;28;20383;-60
2022/12/24 04:13:23;;;;;;;;;;;;;;;9.74;100.00;100809.06;5083981;28;19912;-57
2022/12/24 04:15:57;;;;;;;;;;;;;;;9.78;100.00;100802.44;5088384;28;19920;-60
2022/12/24 04:18:22;;;;;;;;;;;;;;;9.81;100.00;100818.00;5080649;28;20463;-59
2022/12/24 04:20:47;;;;;;;;;;;;;;;9.82;100.00;100827.63;5085251;28;19912;-57
2022/12/24 04:23:12;;;;;;;;;;;;;;;9.86;100.00;100827.16;5085106;28;19923;-61
2022/12/24 04:25:37;;;;;;;;;;;;;;;9.83;100.00;100821.31;5088192;28;20462;-59
2022/12/24 04:28:03;;;;;;;;;;;;;;;9.84;100.00;100830.97;5083946;28;19965;-59
2022/12/24 04:30:28;;;;;;;;;;;;;;;9.85;100.00;100822.84;5077185;28;20371;-58
2022/12/24 04:32:53;;;;;;;;;;;;;;;9.84;100.00;100820.38;5077580;28;19912;-59
2022/12/24 04:35:18;;;;;;;;;;;;;;;9.86;100.00;100832.47;5083936;28;19912;-59
2022/12/24 04:37:43;;;;;;;;;;;;;;;9.87;100.00;100833.28;5078989;28;19916;-60
2022/12/24 04:40:09;;;;;;;;;;;;;;;9.90;100.00;100835.59;5084129;28;19919;-60
2022/12/24 04:42:34;;;;;;;;;;;;;;;9.87;100.00;100830.63;5086384;28;19962;-57
2022/12/24 04:44:59;;;;;;;;;;;;;;;9.86;100.00;100837.75;5083474;28;20749;-61
2022/12/24 04:47:24;;;;;;;;;;;;;;;9.82;100.00;100835.59;5084458;28;19912;-57
2022/12/24 04:49:49;;;;;;;;;;;;;;;9.84;100.00;100836.28;5087038;28;19919;-59
2022/12/24 04:52:14;;;;;;;;;;;;;;;9.85;100.00;100849.38;5081609;28;19920;-57
2022/12/24 04:54:40;;;;;;;;;;;;;;;9.84;100.00;100846.88;5088490;28;19912;-59
2022/12/24 04:57:05;;;;;;;;;;;;;;;9.88;100.00;100837.59;5085834;28;19919;-58
2022/12/24 04:59:30;;;;;;;;;;;;;;;9.87;100.00;100841.25;5087455;28;19916;-59
2022/12/24 05:01:55;;;;;;;;;;;;;;;9.84;100.00;100837.09;5087754;28;19918;-59
2022/12/24 05:04:20;;;;;;;;;;;;;;;9.84;100.00;100839.75;5088826;28;20375;-60
2022/12/24 05:06:45;;;;;;;;;;;;;;;9.82;100.00;100839.06;5085929;28;19912;-59
2022/12/24 05:09:12;;;;;;;;;;;;;;;9.80;100.00;100841.06;5095686;28;20314;-57
2022/12/24 05:11:37;;;;;;;;;;;;;;;9.79;100.00;100847.34;5080701;28;20011;-60
2022/12/24 05:14:02;;;;;;;;;;;;;;;9.78;100.00;100845.69;5089913;28;21368;-60
2022/12/24 05:16:27;;;;;;;;;;;;;;;9.79;100.00;100855.31;5088102;28;19912;-57
2022/12/24 05:18:53;;;;;;;;;;;;;;;9.82;100.00;100860.28;5092580;28;20439;-59
2022/12/24 05:21:20;;;;;;;;;;;;;;;9.81;100.00;100849.84;5085500;28;19912;-60
2022/12/24 05:26:52;;;;;;;;;;;;;;;9.78;100.00;100847.53;5084378;28;19938;-59
2022/12/24 05:29:18;;;;;;;;;;;;;;;9.76;100.00;100849.50;5082935;28;20533;-57
2022/12/24 05:31:44;;;;;;;;;;;;;;;9.74;100.00;100854.97;5087278;28;19963;-61
2022/12/24 05:34:09;;;;;;;;;;;;;;;9.74;100.00;100857.63;5088483;28;19912;-59
2022/12/24 05:36:34;;;;;;;;;;;;;;;9.76;100.00;100854.81;5097007;28;19913;-60
2022/12/24 05:39:00;;;;;;;;;;;;;;;9.76;100.00;100854.81;5090643;28;20007;-59
2022/12/24 05:41:25;;;;;;;;;;;;;;;9.75;100.00;100847.84;5085719;28;19916;-60
2022/12/24 05:43:50;;;;;;;;;;;;;;;9.75;100.00;100851.34;5087245;28;19945;-59
2022/12/24 05:46:17;;;;;;;;;;;;;;;9.74;100.00;100862.94;5091307;28;19912;-57
2022/12/24 05:48:43;;;;;;;;;;;;;;;9.71;100.00;100852.66;5089229;28;20007;-60
2022/12/24 05:51:10;;;;;;;;;;;;;;;9.69;100.00;100864.44;5076935;28;19995;-59
2022/12/24 05:53:36;;;;;;;;;;;;;;;9.69;100.00;100856.47;5089627;28;20047;-58
2022/12/24 05:56:05;;;;;;;;;;;;;;;9.75;100.00;100879.69;5091788;28;19999;-62
2022/12/24 05:58:31;;;;;;;;;;;;;;;9.72;100.00;100887.97;5085556;28;19923;-60
2022/12/24 06:00:56;;;;;;;;;;;;;;;9.74;100.00;100889.44;5088981;28;19916;-57
2022/12/24 06:03:21;;;;;;;;;;;;;;;9.76;100.00;100899.91;5090721;28;19920;-59
2022/12/24 06:05:46;;;;;;;;;;;;;;;9.78;100.00;100893.44;5091426;28;19969;-59
2022/12/24 06:08:12;;;;;;;;;;;;;;;9.78;100.00;100903.22;5086942;28;20486;-59
2022/12/24 06:10:37;;;;;;;;;;;;;;;9.80;100.00;100906.53;5083554;28;19964;-59
2022/12/24 06:13:02;;;;;;;;;;;;;;;9.84;100.00;100899.94;5086119;28;21070;-59
2022/12/24 06:15:27;;;;;;;;;;;;;;;9.79;100.00;100897.75;5081415;28;20049;-57
2022/12/24 06:17:52;;;;;;;;;;;;;;;9.82;100.00;100917.81;5083107;28;19912;-59
2022/12/24 06:20:18;;;;;;;;;;;;;;;9.79;100.00;100908.34;5095141;28;19996;-60
2022/12/24 06:22:43;;;;;;;;;;;;;;;9.75;100.00;100917.63;5087449;28;20070;-60
2022/12/24 06:25:08;;;;;;;;;;;;;;;9.77;100.00;100920.13;5079845;28;19961;-59
2022/12/24 06:27:33;;;;;;;;;;;;;;;9.79;100.00;100908.34;5091151;28;19912;-56
2022/12/24 06:29:58;;;;;;;;;;;;;;;9.76;100.00;100902.53;5085700;28;20388;-58
2022/12/24 06:32:24;;;;;;;;;;;;;;;9.68;100.00;100913.97;5083911;28;20005;-61
2022/12/24 06:34:49;;;;;;;;;;;;;;;9.60;100.00;100914.81;5083967;28;19912;-60
2022/12/24 06:37:17;;;;;;;;;;;;;;;9.59;100.00;100923.75;5098944;28;20039;-60
2022/12/24 06:39:43;;;;;;;;;;;;;;;9.59;100.00;100929.06;5084263;28;19955;-60
2022/12/24 06:42:08;;;;;;;;;;;;;;;9.56;100.00;100932.03;5075053;28;19944;-60
2022/12/24 06:44:33;;;;;;;;;;;;;;;9.54;100.00;100928.72;5089722;28;19943;-57
2022/12/24 06:46:58;;;;;;;;;;;;;;;9.53;100.00;100921.72;5089951;28;19912;-58
2022/12/24 06:49:23;;;;;;;;;;;;;;;9.54;100.00;100925.19;5090233;28;19919;-58
2022/12/24 06:51:49;;;;;;;;;;;;;;;9.55;100.00;100929.53;5089249;28;20433;-59
2022/12/24 06:54:14;;;;;;;;;;;;;;;9.56;100.00;100932.03;5090760;28;19916;-57
2022/12/24 06:56:39;;;;;;;;;;;;;;;9.58;100.00;100927.41;5089205;28;19919;-57
2022/12/24 06:59:04;;;;;;;;;;;;;;;9.54;100.00;100915.47;5090095;28;20478;-60
2022/12/24 07:01:29;;;;;;;;;;;;;;;9.47;100.00;100925.03;5088140;28;20053;-56
2022/12/24 07:03:54;;;;;;;;;;;;;;;9.50;99.69;100935.31;5088819;28;19916;-60
2022/12/24 07:06:24;;;;;;;;;;;;;;;9.53;99.26;100934.16;5088040;28;19912;-59
2022/12/24 07:08:49;;;;;;;;;;;;;;;9.50;99.26;100940.59;5087405;28;19919;-60
2022/12/24 07:11:14;;;;;;;;;;;;;;;9.46;99.28;100949.88;5085567;28;19912;-57
2022/12/24 07:13:39;;;;;;;;;;;;;;;9.44;99.12;100938.59;5087936;28;20371;-59
2022/12/24 07:16:05;;;;;;;;;;;;;;;9.42;99.25;100945.88;5080124;28;20493;-59
2022/12/24 07:18:30;;;;;;;;;;;;;;;9.46;99.02;100962.28;5080465;28;19912;-59
2022/12/24 07:20:56;;;;;;;;;;;;;;;9.47;99.12;100951.53;5080696;28;19921;-57
2022/12/24 07:23:21;;;;;;;;;;;;;;;9.50;98.87;100951.19;5089743;28;19927;-60
2022/12/24 07:25:46;;;;;;;;;;;;;;;9.48;98.67;100942.59;5081379;28;19919;-59
2022/12/24 07:28:11;;;;;;;;;;;;;;;9.43;98.85;100955.50;5087388;28;19912;-59
2022/12/24 07:30:36;;;;;;;;;;;;;;;9.43;98.78;100960.81;5083683;28;19941;-58
2022/12/24 07:33:02;;;;;;;;;;;;;;;9.38;99.03;100955.16;5085068;28;19920;-59
2022/12/24 07:35:27;;;;;;;;;;;;;;;9.41;98.85;100967.25;5087289;28;20382;-59
2022/12/24 07:37:52;;;;;;;;;;;;;;;9.36;98.85;100982.81;5081812;28;19912;-57
2022/12/24 07:40:17;;;;;;;;;;;;;;;9.27;99.16;100985.44;5089637;28;19988;-59
2022/12/24 07:42:42;;;;;;;;;;;;;;;9.23;99.41;100986.72;5092192;28;20414;-60
2022/12/24 07:45:08;;;;;;;;;;;;;;;9.18;99.59;100985.53;5098117;28;19919;-60
2022/12/24 07:47:34;;;;;;;;;;;;;;;9.16;99.51;100993.63;5088934;28;20375;-58
2022/12/24 07:49:59;;;;;;;;;;;;;;;9.14;99.89;100994.78;5081761;28;19962;-59
2022/12/24 07:52:24;;;;;;;;;;;;;;;9.09;99.77;100995.25;5087010;28;19928;-60
2022/12/24 07:54:49;;;;;;;;;;;;;;;9.05;100.00;101011.63;5082281;28;19919;-59
2022/12/24 07:57:14;;;;;;;;;;;;;;;9.00;100.00;101001.50;5087258;28;19912;-56
2022/12/24 07:59:39;;;;;;;;;;;;;;;8.98;100.00;101014.91;5085808;28;19923;-58
2022/12/24 08:02:05;;;;;;;;;;;;;;;9.00;100.00;101028.81;5085754;28;19956;-58
2022/12/24 08:04:31;;;;;;;;;;;;;;;8.99;100.00;101029.81;5081547;28;20391;-58
2022/12/24 08:06:56;;;;;;;;;;;;;;;9.01;100.00;101045.56;5083446;28;20662;-60
2022/12/24 08:09:21;;;;;;;;;;;;;;;9.00;100.00;101039.41;5084642;28;19919;-59
2022/12/24 08:11:47;;;;;;;;;;;;;;;9.02;100.00;101043.72;5088088;28;19927;-60
2022/12/24 08:14:13;;;;;;;;;;;;;;;9.00;100.00;101051.84;5085276;28;19961;-57
2022/12/24 08:16:38;;;;;;;;;;;;;;;9.00;100.00;101055.31;5087690;28;20045;-57
2022/12/24 08:19:03;;;;;;;;;;;;;;;9.04;100.00;101060.28;5088956;28;20003;-62
2022/12/24 08:21:28;;;;;;;;;;;;;;;9.05;100.00;101067.25;5088438;28;19923;-57
2022/12/24 08:23:53;;;;;;;;;;;;;;;9.07;100.00;101066.13;5083491;28;19994;-59
2022/12/24 08:26:19;;;;;;;;;;;;;;;9.10;100.00;101060.50;5082570;28;19912;-60
2022/12/24 08:28:44;;;;;;;;;;;;;;;9.14;100.00;101068.97;5082785;28;19957;-59
2022/12/24 08:31:09;;;;;;;;;;;;;;;9.17;100.00;101071.31;5082798;28;19912;-59
2022/12/24 08:33:34;;;;;;;;;;;;;;;9.23;100.00;101078.63;5074794;28;19920;-59
2022/12/24 08:35:59;;;;;;;;;;;;;;;9.30;100.00;101079.69;5082015;28;19912;-59
2022/12/24 08:38:25;;;;;;;;;;;;;;;9.35;100.00;101093.28;5081480;28;19980;-58
2022/12/24 08:40:51;;;;;;;;;;;;;;;9.37;100.00;101082.53;5079008;28;20429;-56
2022/12/24 08:43:16;;;;;;;;;;;;;;;9.41;100.00;101089.19;5081209;28;19917;-58
2022/12/24 08:45:42;;;;;;;;;;;;;;;9.44;100.00;101086.22;5093967;28;19912;-59
2022/12/24 08:48:08;;;;;;;;;;;;;;;9.43;100.00;101081.91;5085377;28;19935;-54
2022/12/24 08:50:33;;;;;;;;;;;;;;;9.43;100.00;101098.63;5086082;28;20408;-60
2022/12/24 08:52:59;;;;;;;;;;;;;;;9.42;100.00;101098.78;5092110;28;19912;-59
2022/12/24 08:55:24;;;;;;;;;;;;;;;9.42;100.00;101102.28;5083037;28;19928;-58
2022/12/24 08:57:49;;;;;;;;;;;;;;;9.45;100.00;101096.66;5089410;28;19913;-56
2022/12/24 09:00:14;;;;;;;;;;;;;;;9.44;100.00;101112.72;5088202;28;19912;-56
2022/12/24 09:02:40;;;;;;;;;;;;;;;9.45;100.00;101117.88;5091661;28;20402;-60
2022/12/24 09:05:05;;;;;;;;;;;;;;;9.47;100.00;101115.88;5082082;28;19971;-59
2022/12/24 09:07:30;;;;;;;;;;;;;;;9.51;100.00;101124.34;5089811;28;19916;-59
2022/12/24 09:09:55;;;;;;;;;;;;;;;9.60;100.00;101126.09;5092425;28;19934;-58
2022/12/24 09:12:21;;;;;;;;;;;;;;;9.58;100.00;101123.59;5089267;28;20019;-59
2022/12/24 09:14:46;;;;;;;;;;;;;;;9.60;100.00;101137.53;5081165;28;19962;-57
2022/12/24 09:17:11;;;;;;;;;;;;;;;9.70;100.00;101136.56;5092135;28;19952;-59
2022/12/24 09:19:36;;;;;;;;;;;;;;;9.69;100.00;101125.13;5089238;28;19916;-60
2022/12/24 09:22:01;;;;;;;;;;;;;;;9.71;100.00;101128.44;5090744;28;19997;-59
2022/12/24 09:24:26;;;;;;;;;;;;;;;9.70;100.00;101133.91;5086297;28;19916;-59
2022/12/24 09:26:52;;;;;;;;;;;;;;;9.70;100.00;101141.88;5090365;28;19983;-57
2022/12/24 09:29:17;;;;;;;;;;;;;;;9.70;100.00;101158.63;5085900;28;19920;-59
2022/12/24 09:31:42;;;;;;;;;;;;;;;9.69;100.00;101162.25;5084342;28;19912;-58
2022/12/24 09:34:08;;;;;;;;;;;;;;;9.68;100.00;101162.41;5084235;28;19928;-59
2022/12/24 09:36:33;;;;;;;;;;;;;;;9.66;100.00;101162.56;5086282;28;19913;-60
2022/12/24 09:38:58;;;;;;;;;;;;;;;9.64;100.00;101172.50;5090346;28;19927;-58
2022/12/24 09:41:23;;;;;;;;;;;;;;;9.65;100.00;101176.81;5090047;28;19919;-59
2022/12/24 09:43:52;;;;;;;;;;;;;;;9.62;100.00;101169.19;5089922;28;19920;-59
2022/12/24 09:46:32;;;;;;;;;;;;;;;9.60;100.00;101176.47;5086658;28;20394;-60
2022/12/24 09:49:01;;;;;;;;;;;;;;;9.56;100.00;101170.66;5088675;28;19923;-58
2022/12/24 09:52:00;;;;;;;;;;;;;;;9.53;100.00;101176.22;5091231;28;20530;-58
2022/12/24 09:54:28;;;;;;;;;;;;;;;9.53;100.00;101181.53;5059073;28;19973;-57
2022/12/24 09:56:55;;;;;;;;;;;;;;;9.54;100.00;101185.88;5084104;28;20393;-58
2022/12/24 09:59:22;;;;;;;;;;;;;;;9.61;100.00;101192.22;5085267;28;19965;-60
2022/12/24 10:01:49;;;;;;;;;;;;;;;9.68;100.00;101195.06;5087028;28;19916;-59
2022/12/24 10:04:15;;;;;;;;;;;;;;;9.77;100.00;101203.91;5091569;28;20425;-59
2022/12/24 10:06:44;;;;;;;;;;;;;;;9.82;100.00;101199.78;5084598;28;20300;-57
2022/12/24 10:09:14;;;;;;;;;;;;;;;9.86;100.00;101193.19;5074417;28;19919;-57
2022/12/24 10:11:49;;;;;;;;;;;;;;;9.90;100.00;101201.69;5087885;28;19927;-57
2022/12/24 10:14:22;;;;;;;;;;;;;;;9.91;100.00;101209.47;5083777;28;19962;-59
2022/12/24 10:16:53;;;;;;;;;;;;;;;9.99;99.80;101200.72;5083477;28;19912;-57
2022/12/24 10:19:28;;;;;;;;;;;;;;;10.07;99.80;101189.31;5086289;28;19920;-59
2022/12/24 10:22:11;;;;;;;;;;;;;;;10.12;99.56;101192.31;5089859;28;19918;-57
2022/12/24 10:24:42;;;;;;;;;;;;;;;10.17;99.16;101198.00;5095040;28;20319;-60
2022/12/24 10:27:17;;;;;;;;;;;;;;;10.21;98.85;101184.28;5090500;28;19962;-59
2022/12/24 10:29:45;;;;;;;;;;;;;;;10.23;98.84;101194.75;5089417;28;19919;-58
2022/12/24 10:32:16;;;;;;;;;;;;;;;10.20;98.70;101193.25;5078083;28;19912;-59
2022/12/24 10:34:43;;;;;;;;;;;;;;;10.23;98.18;101192.09;5095813;28;19927;-59
2022/12/24 10:37:24;;;;;;;;;;;;;;;10.18;98.01;101189.88;5075976;28;19981;-59
2022/12/24 10:39:50;;;;;;;;;;;;;;;10.17;98.02;101193.53;5087239;28;19969;-58
2022/12/24 10:42:16;;;;;;;;;;;;;;;10.17;97.62;101198.00;5088566;28;19911;-59
2022/12/24 10:44:44;;;;;;;;;;;;;;;10.20;97.59;101203.00;5092733;28;19923;-59
2022/12/24 10:47:09;;;;;;;;;;;;;;;10.16;97.36;101196.34;5083036;28;19936;-58
2022/12/24 10:49:50;;;;;;;;;;;;;;;10.17;97.13;101196.19;5087770;28;19934;-59
2022/12/24 10:52:18;;;;;;;;;;;;;;;10.23;96.97;101198.22;5088153;28;19934;-59
2022/12/24 10:55:02;;;;;;;;;;;;;;;10.22;96.15;101201.88;5090358;28;19973;-60
2022/12/24 10:57:27;;;;;;;;;;;;;;;10.26;96.33;101205.03;5090566;28;20010;-57
2022/12/24 10:59:53;;;;;;;;;;;;;;;10.26;96.18;101206.84;5084710;28;20006;-59
2022/12/24 11:02:35;;;;;;;;;;;;;;;10.33;96.04;101206.06;5083837;28;19943;-57
2022/12/24 11:05:02;;;;;;;;;;;;;;;10.33;95.96;101202.56;5087380;28;20021;-59
2022/12/24 11:07:28;;;;;;;;;;;;;;;10.29;96.03;101211.84;5090271;28;20003;-60
2022/12/24 11:10:06;;;;;;;;;;;;;;;10.29;95.59;101222.47;5085543;28;19912;-59
2022/12/24 11:12:33;;;;;;;;;;;;;;;10.34;95.22;101214.84;5085967;28;19920;-59
2022/12/24 11:15:00;;;;;;;;;;;;;;;10.39;95.29;101221.34;5089605;28;19938;-59
2022/12/24 11:17:26;;;;;;;;;;;;;;;10.36;95.68;101212.84;5095627;28;20549;-58
2022/12/24 11:19:51;;;;;;;;;;;;;;;10.36;95.33;101208.38;5092250;28;20022;-59
2022/12/24 11:22:20;;;;;;;;;;;;;;;10.39;95.13;101210.72;5089718;28;20315;-59
2022/12/24 11:24:45;;;;;;;;;;;;;;;10.40;94.63;101209.72;5089932;28;20480;-60
2022/12/24 11:27:23;;;;;;;;;;;;;;;10.40;94.37;101209.72;5088033;28;20531;-59
2022/12/24 11:29:48;;;;;;;;;;;;;;;10.47;93.68;101223.22;5084926;28;20050;-60
2022/12/24 11:32:16;;;;;;;;;;;;;;;10.46;93.74;101218.91;5085076;28;20393;-58
2022/12/24 11:34:42;;;;;;;;;;;;;;;10.43;92.92;101232.50;5088125;28;19920;-58
2022/12/24 11:37:16;;;;;;;;;;;;;;;10.44;92.89;101226.19;5080486;28;19975;-60
2022/12/24 11:39:47;;;;;;;;;;;;;;;10.41;92.43;101227.34;5076011;28;19922;-58
2022/12/24 11:42:27;;;;;;;;;;;;;;;10.36;92.15;101242.06;5081525;28;19945;-58
2022/12/24 11:44:54;;;;;;;;;;;;;;;10.33;91.97;101232.59;5086287;28;20003;-60
2022/12/24 11:47:30;;;;;;;;;;;;;;;10.35;92.10;101232.44;5085645;28;19919;-59
2022/12/24 11:50:15;;;;;;;;;;;;;;;10.32;92.04;101236.25;5083391;28;19912;-59
2022/12/24 11:52:41;;;;;;;;;;;;;;;10.39;91.98;101236.44;5086112;28;19919;-57
2022/12/24 11:55:21;;;;;;;;;;;;;;;10.35;91.63;101227.97;5088906;28;19916;-58
2022/12/24 11:57:52;;;;;;;;;;;;;;;10.39;91.62;101228.47;5087112;28;20291;-60
2022/12/24 12:00:17;;;;;;;;;;;;;;;10.36;91.33;101226.13;5082149;28;20452;-59
2022/12/24 12:02:45;;;;;;;;;;;;;;;10.34;91.86;101230.78;5085533;28;19912;-58
2022/12/24 12:05:18;;;;;;;;;;;;;;;10.32;91.81;101236.25;5087388;28;19983;-60
2022/12/24 12:07:45;;;;;;;;;;;;;;;10.27;91.54;101232.41;5089202;28;20306;-63
2022/12/24 12:10:13;;;;;;;;;;;;;;;10.27;91.47;101243.84;5077564;28;19912;-59
2022/12/24 12:12:43;;;;;;;;;;;;;;;10.30;91.02;101245.34;5083653;28;19924;-59
2022/12/24 12:15:08;;;;;;;;;;;;;;;10.32;91.41;101238.06;5084911;28;19916;-57
2022/12/24 12:17:53;;;;;;;;;;;;;;;10.39;91.35;101241.75;5081002;28;19919;-58
2022/12/24 12:20:23;;;;;;;;;;;;;;;10.46;90.84;101248.09;5081529;28;20424;-56
2022/12/24 12:23:00;;;;;;;;;;;;;;;10.43;90.60;101246.59;5086334;28;19923;-57
2022/12/24 12:25:29;;;;;;;;;;;;;;;10.36;91.00;101244.72;5088413;28;19912;-61
2022/12/24 12:27:55;;;;;;;;;;;;;;;10.43;91.31;101254.56;5082148;28;19955;-58
2022/12/24 12:30:21;;;;;;;;;;;;;;;10.45;90.62;101265.03;5087712;28;19963;-58
2022/12/24 12:32:58;;;;;;;;;;;;;;;10.46;90.34;101248.09;5084449;28;19951;-60
2022/12/24 12:35:26;;;;;;;;;;;;;;;10.56;89.92;101259.41;5087890;28;20403;-59
2022/12/24 12:37:57;;;;;;;;;;;;;;;10.58;89.62;101254.78;5080593;28;19912;-59
2022/12/24 12:40:28;;;;;;;;;;;;;;;10.62;90.01;101248.16;5087120;28;19927;-60
2022/12/24 12:43:00;;;;;;;;;;;;;;;10.64;89.84;101253.28;5088350;28;19919;-58
2022/12/24 12:45:48;;;;;;;;;;;;;;;10.61;89.64;101251.78;5082417;28;19919;-58